Time;durP1;ratioP1;P1;durP2;ratioP2;P2;SDS_P1;SDS_P2;PMS_P1;PMS_P2;Temp;Humidity;BMP_temperature;BMP_pressure;BME280_temperature;BME280_humidity;BME280_pressure;Samples;Min_cycle;Max_cycle;Signal;HPM_P1;HPM_P2
2022/01/21 00:01:40;;;;;;;7.45;3.45;;;2.00;91.30;;;;;;5092852;28;20040;-79
2022/01/21 00:04:09;;;;;;;6.30;2.28;;;2.00;91.30;;;;;;5092770;28;20032;-79
2022/01/21 00:06:35;;;;;;;5.53;2.50;;;2.00;91.40;;;;;;5093234;28;20028;-78
2022/01/21 00:09:02;;;;;;;6.40;2.38;;;2.00;91.50;;;;;;5092908;28;20043;-78
2022/01/21 00:11:31;;;;;;;7.05;2.60;;;1.90;91.70;;;;;;5092704;28;20044;-78
2022/01/21 00:13:58;;;;;;;5.63;2.92;;;1.90;91.70;;;;;;5074742;28;20043;-78
2022/01/21 00:16:26;;;;;;;8.85;2.72;;;1.80;91.80;;;;;;5093033;28;20028;-78
2022/01/21 00:19:02;;;;;;;10.05;3.00;;;1.80;91.80;;;;;;5092780;28;20047;-78
2022/01/21 00:32:31;;;;;;;6.00;2.33;;;1.70;92.10;;;;;;5074428;28;20048;-77
2022/01/21 00:34:57;;;;;;;8.85;3.13;;;1.70;91.80;;;;;;5092442;28;20028;-78
2022/01/21 00:37:24;;;;;;;8.43;3.08;;;1.70;91.90;;;;;;5074601;28;20032;-78
2022/01/21 00:39:55;;;;;;;10.90;3.25;;;1.70;91.40;;;;;;5074391;28;20036;-78
2022/01/21 00:44:50;;;;;;;11.00;3.10;;;1.70;91.60;;;;;;5073870;28;20359;-78
2022/01/21 00:47:16;;;;;;;8.35;3.13;;;1.80;91.80;;;;;;5093027;28;20024;-78
2022/01/21 00:49:42;;;;;;;5.43;2.40;;;1.70;91.70;;;;;;5093363;28;20024;-78
2022/01/21 00:52:09;;;;;;;14.18;2.97;;;1.70;91.90;;;;;;5093012;28;20051;-78
2022/01/21 00:54:37;;;;;;;6.60;3.28;;;1.70;91.90;;;;;;5074762;28;20040;-77
2022/01/21 00:57:04;;;;;;;10.57;5.03;;;1.70;91.90;;;;;;5092259;28;20381;-78
2022/01/21 00:59:30;;;;;;;26.10;10.73;;;1.70;92.00;;;;;;5092960;28;20032;-78
2022/01/21 01:01:56;;;;;;;28.73;13.93;;;1.60;92.00;;;;;;5092020;28;20043;-78
2022/01/21 01:04:22;;;;;;;17.85;9.68;;;1.60;92.20;;;;;;5092828;28;20024;-78
2022/01/21 01:06:49;;;;;;;14.45;5.95;;;1.60;92.70;;;;;;5092308;28;20032;-78
2022/01/21 01:09:15;;;;;;;8.20;4.30;;;1.50;92.80;;;;;;5092910;28;20047;-78
2022/01/21 01:12:06;;;;;;;9.82;5.57;;;1.40;93.20;;;;;;5092661;28;20039;-77
2022/01/21 01:20:07;;;;;;;10.25;3.33;;;1.30;93.60;;;;;;5079426;28;20044;-77
2022/01/21 01:27:53;;;;;;;6.93;3.33;;;1.40;92.90;;;;;;5103671;28;20040;-79
2022/01/21 01:30:22;;;;;;;9.18;3.30;;;1.30;93.00;;;;;;5102737;28;20027;-78
2022/01/21 01:32:50;;;;;;;12.45;3.47;;;1.30;93.10;;;;;;5098510;28;20040;-78
2022/01/21 01:35:20;;;;;;;6.38;2.22;;;1.20;93.20;;;;;;5081635;28;20031;-79
2022/01/21 01:40:45;;;;;;;6.90;2.90;;;1.10;93.50;;;;;;5097921;28;20028;-78
2022/01/21 01:51:16;;;;;;;6.90;2.85;;;0.70;94.80;;;;;;5077260;28;20374;-78
2022/01/21 01:53:53;;;;;;;3.28;2.30;;;0.70;94.90;;;;;;5095985;28;20028;-78
2022/01/21 01:56:35;;;;;;;7.05;3.67;;;0.60;95.20;;;;;;5109788;28;20031;-78
2022/01/21 01:59:01;;;;;;;7.03;2.92;;;0.50;95.60;;;;;;5098040;28;20036;-78
2022/01/21 02:01:27;;;;;;;6.43;3.10;;;0.30;96.20;;;;;;5116545;28;20047;-77
2022/01/21 02:03:54;;;;;;;6.95;2.72;;;0.20;96.90;;;;;;5116360;28;20380;-77
2022/01/21 02:06:21;;;;;;;6.35;3.42;;;0.00;97.30;;;;;;5116445;28;20035;-77
2022/01/21 02:08:47;;;;;;;8.52;2.97;;;-0.10;99.00;;;;;;5116558;28;20034;-77
2022/01/21 02:11:14;;;;;;;13.70;4.00;;;-0.20;99.90;;;;;;5115609;28;20043;-78
2022/01/21 02:13:45;;;;;;;5.70;3.90;;;-0.20;99.90;;;;;;5116192;28;20031;-78
2022/01/21 02:21:36;;;;;;;6.10;3.58;;;-0.20;99.90;;;;;;5097475;28;20054;-80
2022/01/21 02:24:06;;;;;;;12.02;5.18;;;-0.10;99.90;;;;;;5115578;28;20034;-78
2022/01/21 02:26:34;;;;;;;8.30;4.05;;;0.00;99.90;;;;;;5096523;28;20392;-77
2022/01/21 02:29:02;;;;;;;7.60;4.47;;;0.20;99.90;;;;;;5096580;28;20370;-78
2022/01/21 02:31:28;;;;;;;13.00;4.82;;;0.10;99.90;;;;;;5097319;28;20043;-78
2022/01/21 02:33:56;;;;;;;8.13;4.63;;;0.10;99.90;;;;;;5096276;28;20499;-78
2022/01/21 02:36:23;;;;;;;11.15;5.05;;;0.10;99.90;;;;;;5097819;28;20031;-78
2022/01/21 02:38:49;;;;;;;13.73;5.57;;;0.20;99.90;;;;;;5097261;28;20046;-78
2022/01/21 02:41:16;;;;;;;12.23;4.75;;;0.20;99.90;;;;;;5100364;28;20050;-78
2022/01/21 02:43:42;;;;;;;16.05;5.18;;;0.10;99.90;;;;;;5099647;28;20040;-79
2022/01/21 02:46:10;;;;;;;9.07;4.13;;;0.10;99.90;;;;;;5096234;28;20031;-78
2022/01/21 02:48:38;;;;;;;8.40;4.70;;;-0.10;99.90;;;;;;5097009;28;20046;-78
2022/01/21 02:51:08;;;;;;;10.98;3.90;;;-0.20;99.90;;;;;;5096483;28;20040;-78
2022/01/21 02:56:19;;;;;;;16.08;4.05;;;-0.20;99.90;;;;;;5096226;28;20048;-79
2022/01/21 02:58:47;;;;;;;9.52;4.65;;;-0.30;99.90;;;;;;5096612;28;20040;-78
2022/01/21 03:01:15;;;;;;;7.35;4.50;;;-0.40;99.90;;;;;;5095652;28;20393;-78
2022/01/21 03:03:43;;;;;;;13.50;4.43;;;-0.50;99.90;;;;;;5114586;28;20062;-78
2022/01/21 03:06:09;;;;;;;9.88;4.47;;;-0.50;99.90;;;;;;5114169;28;20042;-78
2022/01/21 03:08:36;;;;;;;9.35;4.45;;;-0.50;99.90;;;;;;5096212;28;20040;-78
2022/01/21 03:11:02;;;;;;;17.92;4.72;;;-0.50;99.90;;;;;;5095727;28;20043;-77
2022/01/21 03:13:29;;;;;;;5.25;3.20;;;-0.50;99.90;;;;;;5115042;28;20376;-77
2022/01/21 03:15:55;;;;;;;10.20;3.97;;;-0.50;99.90;;;;;;5114266;28;20034;-77
2022/01/21 03:18:21;;;;;;;7.70;4.47;;;-0.50;99.90;;;;;;5114925;28;20376;-78
2022/01/21 03:20:47;;;;;;;6.63;3.67;;;-0.50;99.90;;;;;;5114642;28;20039;-77
2022/01/21 03:23:17;;;;;;;12.32;3.70;;;-0.50;99.90;;;;;;5113035;28;20043;-77
2022/01/21 03:25:46;;;;;;;7.53;4.07;;;-0.50;99.90;;;;;;5095972;28;20047;-77
2022/01/21 03:28:14;;;;;;;9.52;4.47;;;-0.40;99.90;;;;;;5095898;28;20043;-78
2022/01/21 03:30:43;;;;;;;9.32;4.22;;;-0.40;99.90;;;;;;5095842;28;20047;-78
2022/01/21 03:33:13;;;;;;;5.55;3.88;;;-0.40;99.90;;;;;;5094897;28;20050;-77
2022/01/21 03:35:42;;;;;;;11.00;4.32;;;-0.50;99.90;;;;;;5095454;28;20050;-77
2022/01/21 03:38:08;;;;;;;5.68;4.15;;;-0.50;99.90;;;;;;5093941;28;20400;-77
2022/01/21 03:40:35;;;;;;;7.78;4.43;;;-0.50;99.90;;;;;;5095546;28;20040;-78
2022/01/21 03:43:02;;;;;;;6.53;4.05;;;-0.40;99.90;;;;;;5094995;28;20043;-78
2022/01/21 03:45:28;;;;;;;7.43;3.90;;;-0.50;99.90;;;;;;5095880;28;20066;-77
2022/01/21 03:47:54;;;;;;;7.95;4.18;;;-0.50;99.90;;;;;;5113541;28;20031;-85
2022/01/21 03:52:47;;;;;;;14.68;4.53;;;-0.70;99.90;;;;;;5095363;28;20048;-77
2022/01/21 03:55:13;;;;;;;4.70;3.50;;;-0.70;99.90;;;;;;5094424;28;20040;-77
2022/01/21 03:57:40;;;;;;;12.88;5.00;;;-0.70;99.90;;;;;;5095098;28;20395;-77
2022/01/21 04:00:09;;;;;;;15.00;6.75;;;-0.80;99.90;;;;;;5094831;28;20043;-77
2022/01/21 04:02:42;;;;;;;8.57;4.63;;;-0.90;99.90;;;;;;5120377;28;20047;-77
2022/01/21 04:05:12;;;;;;;6.97;3.55;;;-1.00;99.90;;;;;;5094357;28;20050;-77
2022/01/21 04:07:38;;;;;;;6.43;4.25;;;-1.10;99.90;;;;;;5095236;28;20039;-77
2022/01/21 04:10:06;;;;;;;8.52;3.72;;;-1.20;99.90;;;;;;5095017;28;20043;-77
2022/01/21 04:12:33;;;;;;;10.30;4.13;;;-1.20;99.90;;;;;;5094885;28;20047;-77
2022/01/21 04:14:59;;;;;;;11.38;3.60;;;-1.30;99.90;;;;;;5094410;28;20047;-77
2022/01/21 04:17:27;;;;;;;10.63;3.95;;;-1.30;99.90;;;;;;5095279;28;20040;-77
2022/01/21 04:19:54;;;;;;;12.35;4.00;;;-1.30;99.90;;;;;;5094925;28;20039;-77
2022/01/21 04:22:20;;;;;;;12.73;4.50;;;-1.40;99.90;;;;;;5093996;28;20416;-77
2022/01/21 04:24:48;;;;;;;13.50;4.43;;;-1.40;99.90;;;;;;5094423;28;20044;-77
2022/01/21 04:27:17;;;;;;;16.70;4.68;;;-1.40;99.90;;;;;;5094069;28;20044;-77
2022/01/21 04:29:43;;;;;;;7.50;4.60;;;-1.40;99.90;;;;;;5094820;28;20047;-77
2022/01/21 04:32:12;;;;;;;12.15;4.30;;;-1.40;99.90;;;;;;5093731;28;20491;-77
2022/01/21 04:34:39;;;;;;;6.70;3.88;;;-1.40;99.90;;;;;;5094182;28;20044;-77
2022/01/21 04:37:09;;;;;;;10.05;4.53;;;-1.40;99.90;;;;;;5093961;28;20059;-77
2022/01/21 04:39:57;;;;;;;7.30;4.75;;;-1.40;99.90;;;;;;5094498;28;20043;-77
2022/01/21 04:47:39;;;;;;;13.30;4.88;;;-1.40;99.90;;;;;;5094375;28;20044;-78
2022/01/21 04:50:13;;;;;;;22.83;6.00;;;-1.20;99.90;;;;;;5093792;28;20040;-78
2022/01/21 04:52:43;;;;;;;10.85;6.63;;;-1.20;99.90;;;;;;5094318;28;20495;-78
2022/01/21 04:55:29;;;;;;;13.40;5.45;;;-1.10;99.90;;;;;;5094809;28;20044;-77
2022/01/21 04:57:55;;;;;;;12.80;5.60;;;-1.10;99.90;;;;;;5093249;28;20044;-78
2022/01/21 05:00:23;;;;;;;9.10;5.97;;;-1.10;99.90;;;;;;5073907;28;20308;-78
2022/01/21 05:02:51;;;;;;;8.18;5.70;;;-1.10;99.90;;;;;;5074107;28;20047;-77
2022/01/21 05:05:19;;;;;;;9.88;5.95;;;-1.10;99.90;;;;;;5073778;28;20051;-78
2022/01/21 05:07:45;;;;;;;18.35;6.15;;;-1.20;99.90;;;;;;5073620;28;20485;-78
2022/01/21 05:10:12;;;;;;;9.68;5.30;;;-1.10;99.90;;;;;;5073657;28;20040;-78
2022/01/21 05:12:38;;;;;;;12.38;6.18;;;-1.10;99.90;;;;;;5074387;28;20048;-78
2022/01/21 05:15:13;;;;;;;11.38;5.97;;;-1.10;99.90;;;;;;5073850;28;20044;-78
2022/01/21 05:17:45;;;;;;;12.27;6.57;;;-1.00;99.90;;;;;;5057975;28;20044;-77
2022/01/21 05:20:13;;;;;;;7.60;5.20;;;-1.00;99.90;;;;;;5074023;28;20039;-77
2022/01/21 05:23:14;;;;;;;14.35;5.82;;;-1.00;99.90;;;;;;5078066;28;20474;-77
2022/01/21 05:25:41;;;;;;;6.38;4.85;;;-1.00;99.90;;;;;;5074164;28;20032;-77
2022/01/21 05:28:07;;;;;;;23.23;7.28;;;-0.90;99.90;;;;;;5069869;28;20044;-78
2022/01/21 05:30:45;;;;;;;8.38;5.53;;;-1.00;99.90;;;;;;5054174;28;20063;-77
2022/01/21 05:33:27;;;;;;;9.75;4.57;;;-0.90;99.90;;;;;;5072397;28;20040;-78
2022/01/21 05:36:12;;;;;;;9.65;5.45;;;-0.90;99.90;;;;;;5069987;28;20067;-81
2022/01/21 05:38:53;;;;;;;12.02;6.38;;;-0.90;99.90;;;;;;5073273;28;20048;-80
2022/01/21 05:41:47;;;;;;;13.40;5.78;;;-0.80;99.90;;;;;;5066864;28;20052;-81
2022/01/21 05:47:10;;;;;;;17.88;12.65;;;-0.80;99.90;;;;;;5075633;28;20055;-81
2022/01/21 05:49:51;;;;;;;13.70;6.93;;;-0.80;99.90;;;;;;5074992;28;20040;-85
2022/01/21 05:52:42;;;;;;;20.63;6.72;;;-0.80;99.90;;;;;;5082329;28;20428;-85
2022/01/21 05:55:15;;;;;;;16.67;8.55;;;-0.80;99.90;;;;;;5082293;28;20489;-83
2022/01/21 05:57:47;;;;;;;20.88;11.18;;;-0.80;99.90;;;;;;5063168;28;20786;-82
2022/01/21 06:00:15;;;;;;;20.00;10.82;;;-0.80;99.90;;;;;;5064198;28;20048;-84
2022/01/21 06:02:48;;;;;;;20.75;9.07;;;-0.70;99.90;;;;;;5091301;28;20051;-83
2022/01/21 06:05:15;;;;;;;18.45;14.38;;;-0.60;99.90;;;;;;5071004;28;20044;-82
2022/01/21 06:07:42;;;;;;;15.85;7.60;;;-0.60;99.90;;;;;;5090220;28;20040;-79
2022/01/21 06:10:09;;;;;;;14.88;10.05;;;-0.60;99.90;;;;;;5088923;28;20036;-83
2022/01/21 06:12:35;;;;;;;15.10;7.07;;;-0.60;99.90;;;;;;5090240;28;20036;-83
2022/01/21 06:15:01;;;;;;;17.77;10.75;;;-0.60;99.90;;;;;;5072099;28;20040;-83
2022/01/21 06:17:27;;;;;;;15.75;8.82;;;-0.60;99.90;;;;;;5070622;28;20044;-83
2022/01/21 06:19:54;;;;;;;22.15;7.72;;;-0.60;99.90;;;;;;5091061;28;20028;-82
2022/01/21 06:22:20;;;;;;;17.88;9.43;;;-0.60;99.90;;;;;;5093312;28;20032;-83
2022/01/21 06:24:46;;;;;;;27.20;8.98;;;-0.50;99.90;;;;;;5089934;28;20035;-82
2022/01/21 06:27:12;;;;;;;16.63;10.15;;;-0.60;99.90;;;;;;5086381;28;20039;-82
2022/01/21 06:29:38;;;;;;;34.70;18.60;;;-0.60;99.90;;;;;;5094879;28;20035;-81
2022/01/21 06:32:05;;;;;;;15.13;10.50;;;-0.60;99.90;;;;;;5075885;28;20048;-81
2022/01/21 06:34:31;;;;;;;16.27;10.77;;;-0.70;99.90;;;;;;5095160;28;20032;-81
2022/01/21 06:36:57;;;;;;;19.08;10.07;;;-0.70;99.90;;;;;;5094636;28;20020;-82
2022/01/21 06:39:23;;;;;;;20.95;11.23;;;-0.80;99.90;;;;;;5093952;28;20031;-81
2022/01/21 06:41:51;;;;;;;27.10;14.90;;;-0.90;99.90;;;;;;5094668;28;20032;-81
2022/01/21 06:44:17;;;;;;;18.20;8.52;;;-0.90;99.90;;;;;;5094127;28;20032;-81
2022/01/21 06:46:43;;;;;;;14.85;7.53;;;-0.90;99.90;;;;;;5094394;28;20393;-82
2022/01/21 06:49:10;;;;;;;19.30;10.52;;;-1.00;99.90;;;;;;5092809;28;20036;-82
2022/01/21 06:51:36;;;;;;;15.38;10.48;;;-1.00;99.90;;;;;;5094773;28;20032;-82
2022/01/21 06:54:03;;;;;;;16.13;10.88;;;-1.10;99.90;;;;;;5094559;28;20032;-82
2022/01/21 06:56:30;;;;;;;24.70;12.65;;;-1.10;99.90;;;;;;5094172;28;20040;-81
2022/01/21 06:58:57;;;;;;;17.10;12.13;;;-1.10;99.90;;;;;;5094244;28;20040;-82
2022/01/21 07:01:23;;;;;;;25.77;14.80;;;-1.10;99.90;;;;;;5093759;28;20052;-82
2022/01/21 07:03:49;;;;;;;14.88;9.80;;;-1.20;99.90;;;;;;5094149;28;20035;-82
2022/01/21 07:06:16;;;;;;;15.55;9.48;;;-1.20;99.90;;;;;;5093265;28;20039;-82
2022/01/21 07:08:42;;;;;;;23.15;8.90;;;-1.30;99.90;;;;;;5094372;28;20386;-82
2022/01/21 07:11:08;;;;;;;10.82;8.68;;;-1.30;99.90;;;;;;5075502;28;20032;-82
2022/01/21 07:13:34;;;;;;;15.27;11.50;;;-1.30;99.90;;;;;;5096324;28;20035;-81
2022/01/21 07:16:00;;;;;;;17.85;12.48;;;-1.40;99.90;;;;;;5096353;28;20036;-79
2022/01/21 07:18:27;;;;;;;20.75;12.93;;;-1.50;99.90;;;;;;5095442;28;20028;-80
2022/01/21 07:20:53;;;;;;;20.83;15.63;;;-1.50;99.90;;;;;;5075237;28;20040;-81
2022/01/21 07:23:19;;;;;;;31.00;16.02;;;-1.40;99.90;;;;;;5093527;28;20207;-79
2022/01/21 07:25:46;;;;;;;29.50;13.20;;;-1.30;99.90;;;;;;5094114;28;20039;-81
2022/01/21 07:28:12;;;;;;;18.65;14.20;;;-1.20;99.90;;;;;;5094224;28;20036;-82
2022/01/21 07:30:38;;;;;;;20.77;13.73;;;-1.20;99.90;;;;;;5094479;28;20036;-81
2022/01/21 07:33:04;;;;;;;21.63;13.50;;;-1.10;99.90;;;;;;5093913;28;20480;-83
2022/01/21 07:35:31;;;;;;;18.17;12.73;;;-1.10;99.90;;;;;;5075925;28;20035;-81
2022/01/21 07:37:59;;;;;;;20.98;13.00;;;-1.00;99.90;;;;;;5094035;28;20028;-82
2022/01/21 07:40:26;;;;;;;35.42;21.67;;;-0.90;99.90;;;;;;5093412;28;20039;-81
2022/01/21 07:42:52;;;;;;;27.77;18.35;;;-0.70;99.90;;;;;;5094298;28;20039;-81
2022/01/21 07:45:18;;;;;;;25.25;15.43;;;-0.50;99.90;;;;;;5093558;28;20484;-83
2022/01/21 07:47:44;;;;;;;26.42;15.90;;;-0.40;99.90;;;;;;5075753;28;20110;-81
2022/01/21 07:50:11;;;;;;;23.98;14.35;;;-0.30;99.90;;;;;;5093400;28;20035;-82
2022/01/21 07:52:37;;;;;;;19.40;14.68;;;-0.20;99.90;;;;;;5093831;28;20032;-82
2022/01/21 07:55:03;;;;;;;20.55;14.27;;;-0.20;99.90;;;;;;5094114;28;20027;-84
2022/01/21 07:57:30;;;;;;;13.35;11.50;;;-0.20;99.90;;;;;;5093956;28;20051;-82
2022/01/21 07:59:56;;;;;;;12.85;10.10;;;-0.10;99.90;;;;;;5071546;28;20045;-82
2022/01/21 08:02:24;;;;;;;21.35;9.98;;;-0.20;99.90;;;;;;5091349;28;20036;-81
2022/01/21 08:04:51;;;;;;;15.90;10.32;;;-0.10;99.90;;;;;;5071682;28;20044;-82
2022/01/21 08:07:17;;;;;;;14.38;10.48;;;0.00;99.90;;;;;;5089515;28;20028;-81
2022/01/21 08:09:43;;;;;;;12.32;10.20;;;0.00;99.90;;;;;;5093365;28;20028;-81
2022/01/21 08:12:11;;;;;;;10.88;9.18;;;0.00;99.90;;;;;;5093084;28;20043;-80
2022/01/21 08:14:37;;;;;;;16.70;11.38;;;0.10;99.90;;;;;;5093268;28;20035;-81
2022/01/21 08:17:04;;;;;;;15.15;9.98;;;0.20;99.90;;;;;;5093740;28;20031;-80
2022/01/21 08:19:30;;;;;;;20.67;10.52;;;0.30;99.90;;;;;;5093590;28;20377;-81
2022/01/21 08:21:56;;;;;;;16.60;10.55;;;0.30;99.90;;;;;;5093378;28;20028;-81
2022/01/21 08:24:23;;;;;;;17.92;9.00;;;0.30;99.90;;;;;;5092467;28;20377;-81
2022/01/21 08:26:49;;;;;;;13.75;9.70;;;0.40;99.90;;;;;;5093321;28;20032;-81
2022/01/21 08:29:16;;;;;;;15.77;9.55;;;0.40;99.90;;;;;;5074319;28;20044;-81
2022/01/21 08:31:44;;;;;;;13.02;10.20;;;0.50;99.90;;;;;;5093187;28;20040;-80
2022/01/21 08:34:13;;;;;;;12.15;10.77;;;0.50;99.90;;;;;;5057570;28;20067;-82
2022/01/21 08:36:40;;;;;;;43.17;29.48;;;0.60;99.90;;;;;;5093425;28;20036;-81
2022/01/21 08:39:06;;;;;;;45.42;26.42;;;0.60;99.90;;;;;;5057439;28;20036;-87
2022/01/21 08:41:33;;;;;;;31.38;21.08;;;0.70;99.90;;;;;;5093585;28;20028;-81
2022/01/21 08:43:59;;;;;;;37.38;16.60;;;0.80;99.90;;;;;;5092679;28;20043;-82
2022/01/21 08:46:25;;;;;;;28.05;13.88;;;0.80;99.90;;;;;;5092611;28;20113;-82
2022/01/21 08:48:52;;;;;;;26.05;14.07;;;0.90;99.90;;;;;;5092833;28;20331;-82
2022/01/21 08:51:25;;;;;;;45.50;29.52;;;0.90;99.90;;;;;;5093065;28;20031;-82
2022/01/21 08:53:51;;;;;;;30.30;14.70;;;0.90;99.90;;;;;;5058131;28;20130;-83
2022/01/21 08:56:18;;;;;;;28.75;17.30;;;1.00;99.90;;;;;;5092299;28;20453;-82
2022/01/21 08:58:46;;;;;;;79.78;52.47;;;1.00;99.90;;;;;;5093470;28;20043;-82
2022/01/21 09:01:14;;;;;;;83.40;52.20;;;1.00;99.90;;;;;;5092535;28;20040;-82
2022/01/21 09:03:41;;;;;;;56.42;34.20;;;1.00;99.90;;;;;;5092453;28;20043;-80
2022/01/21 09:06:08;;;;;;;19.45;12.25;;;1.20;99.90;;;;;;5092068;28;20043;-77
2022/01/21 09:08:34;;;;;;;21.70;12.23;;;1.40;99.90;;;;;;5091743;28;20020;-80
2022/01/21 09:11:03;;;;;;;20.88;15.98;;;1.40;99.90;;;;;;5092901;28;20036;-80
2022/01/21 09:13:31;;;;;;;31.58;22.15;;;1.60;99.90;;;;;;5073360;28;20047;-80
2022/01/21 09:16:01;;;;;;;48.10;25.45;;;1.70;99.90;;;;;;5090691;28;20027;-80
2022/01/21 09:18:44;;;;;;;19.52;13.55;;;1.70;99.90;;;;;;5091326;28;20313;-81
2022/01/21 09:21:15;;;;;;;22.13;12.93;;;1.80;99.90;;;;;;5088462;28;20024;-81
2022/01/21 09:23:41;;;;;;;30.13;10.25;;;2.00;99.90;;;;;;5091072;28;20039;-84
2022/01/21 09:26:09;;;;;;;15.18;8.00;;;2.20;99.90;;;;;;5071857;28;20035;-87
2022/01/21 09:28:35;;;;;;;21.67;9.10;;;2.20;99.90;;;;;;5088064;28;20040;-82
2022/01/21 09:31:02;;;;;;;13.90;9.18;;;2.30;99.90;;;;;;5089631;28;20024;-80
2022/01/21 09:33:28;;;;;;;15.73;10.52;;;2.40;99.90;;;;;;5088005;28;20032;-82
2022/01/21 09:35:54;;;;;;;10.77;8.93;;;2.50;99.90;;;;;;5092307;28;20036;-81
2022/01/21 09:38:24;;;;;;;15.48;10.45;;;2.70;99.90;;;;;;5074054;28;20043;-83
2022/01/21 09:40:51;;;;;;;12.85;11.05;;;2.70;99.90;;;;;;5092981;28;20043;-81
2022/01/21 09:43:19;;;;;;;20.15;11.75;;;2.70;99.80;;;;;;5092377;28;20379;-84
2022/01/21 09:45:53;;;;;;;21.10;11.27;;;2.70;98.90;;;;;;5093237;28;20150;-82
2022/01/21 09:48:27;;;;;;;16.38;10.85;;;2.80;99.60;;;;;;5091488;28;20032;-81
2022/01/21 09:50:56;;;;;;;27.38;9.88;;;2.90;99.40;;;;;;5090537;28;20043;-81
2022/01/21 09:53:32;;;;;;;17.98;10.15;;;3.00;97.90;;;;;;5084937;28;20388;-82
2022/01/21 09:56:00;;;;;;;13.85;10.05;;;3.20;97.40;;;;;;5093629;28;20032;-84
2022/01/21 09:58:29;;;;;;;16.17;7.68;;;3.30;96.90;;;;;;5095519;28;20052;-80
2022/01/21 10:01:01;;;;;;;9.68;5.97;;;3.40;96.40;;;;;;5097327;28;20032;-81
2022/01/21 10:03:28;;;;;;;11.90;6.15;;;3.50;94.60;;;;;;5099944;28;20047;-81
2022/01/21 10:05:55;;;;;;;13.15;6.28;;;3.50;94.10;;;;;;5099898;28;20044;-81
2022/01/21 10:08:23;;;;;;;15.63;5.50;;;3.50;94.30;;;;;;5104494;28;20035;-81
2022/01/21 10:10:50;;;;;;;10.02;6.03;;;3.60;93.90;;;;;;5102002;28;20035;-81
2022/01/21 10:13:19;;;;;;;7.82;5.38;;;3.60;93.20;;;;;;5096142;28;20388;-81
2022/01/21 10:15:49;;;;;;;8.55;4.85;;;3.60;93.10;;;;;;5096038;28;20032;-80
2022/01/21 10:18:18;;;;;;;8.38;5.30;;;3.60;93.70;;;;;;5095089;28;20059;-82
2022/01/21 10:21:03;;;;;;;11.48;5.30;;;3.60;93.30;;;;;;5076797;28;20039;-81
2022/01/21 10:23:30;;;;;;;14.18;4.63;;;3.60;92.70;;;;;;5094800;28;20035;-81
2022/01/21 10:26:09;;;;;;;18.25;4.25;;;3.50;93.30;;;;;;5094813;28;20029;-81
2022/01/21 10:28:37;;;;;;;3.72;2.67;;;3.30;92.90;;;;;;5095111;28;20028;-82
2022/01/21 10:31:07;;;;;;;6.95;3.10;;;3.40;93.00;;;;;;5095136;28;20032;-82
2022/01/21 10:33:48;;;;;;;6.38;3.53;;;3.40;92.70;;;;;;5094585;28;20039;-84
2022/01/21 10:36:27;;;;;;;12.23;3.45;;;3.40;93.20;;;;;;5094521;28;20024;-83
2022/01/21 10:39:02;;;;;;;6.25;3.22;;;3.60;93.70;;;;;;5094976;28;20483;-84
2022/01/21 10:41:31;;;;;;;10.25;3.25;;;3.60;92.80;;;;;;5094834;28;20036;-83
2022/01/21 10:44:13;;;;;;;6.60;2.95;;;3.70;92.10;;;;;;5076407;28;20051;-84
2022/01/21 10:46:41;;;;;;;5.43;2.97;;;3.60;91.90;;;;;;5094343;28;20036;-83
2022/01/21 10:49:10;;;;;;;5.65;2.90;;;3.60;92.10;;;;;;5062415;28;20039;-82
2022/01/21 10:51:39;;;;;;;9.18;3.15;;;3.60;91.90;;;;;;5094546;28;20039;-84
2022/01/21 10:54:23;;;;;;;7.70;3.95;;;3.70;91.80;;;;;;5071734;28;20135;-82
2022/01/21 10:57:07;;;;;;;7.78;3.55;;;3.80;91.80;;;;;;5090158;28;20043;-81
2022/01/21 10:59:51;;;;;;;5.32;2.90;;;3.90;91.90;;;;;;5074312;28;20043;-81
2022/01/21 11:02:33;;;;;;;7.13;2.72;;;4.00;90.80;;;;;;5074378;28;20130;-81
2022/01/21 11:05:03;;;;;;;11.30;3.47;;;4.10;91.10;;;;;;5039740;28;20521;-81
2022/01/21 11:07:55;;;;;;;6.10;3.13;;;4.10;90.50;;;;;;5056724;28;20488;-82
2022/01/21 11:10:36;;;;;;;;;;;4.00;90.50;;;;;;5056494;28;20493;-81
2022/01/21 11:13:12;;;;;;;7.13;3.22;;;4.00;90.40;;;;;;5074380;28;19909;-82
2022/01/21 11:15:41;;;;;;;3.92;2.22;;;4.00;90.60;;;;;;5074637;28;20040;-83
2022/01/21 11:18:10;;;;;;;6.80;3.00;;;4.10;90.20;;;;;;5056378;28;20036;-82
2022/01/21 11:20:40;;;;;;;8.25;2.80;;;4.20;90.40;;;;;;5066093;28;20040;-84
2022/01/21 11:23:08;;;;;;;4.35;1.92;;;4.20;90.00;;;;;;5093937;28;20040;-83
2022/01/21 11:25:41;;;;;;;9.40;2.83;;;4.10;90.20;;;;;;5091745;28;20040;-84
2022/01/21 11:28:12;;;;;;;8.30;3.00;;;4.10;90.30;;;;;;5073841;28;20032;-83
2022/01/21 11:30:39;;;;;;;10.38;2.85;;;4.10;90.30;;;;;;5090869;28;20055;-84
2022/01/21 11:33:06;;;;;;;8.43;3.03;;;4.10;90.60;;;;;;5090602;28;20051;-83
2022/01/21 11:35:33;;;;;;;8.20;2.45;;;4.20;90.40;;;;;;5071077;28;20114;-83
2022/01/21 11:38:04;;;;;;;5.20;2.30;;;4.30;90.80;;;;;;5093458;28;20032;-82
2022/01/21 11:40:31;;;;;;;7.60;2.42;;;4.40;90.10;;;;;;5097030;28;20031;-82
2022/01/21 11:42:57;;;;;;;9.18;2.30;;;4.30;89.00;;;;;;5101639;28;20028;-83
2022/01/21 11:50:49;;;;;;;10.13;3.33;;;4.50;88.10;;;;;;5057690;28;20043;-84
2022/01/21 11:53:45;;;;;;;15.50;3.15;;;4.60;87.60;;;;;;5093053;28;20032;-84
2022/01/21 11:56:35;;;;;;;8.13;2.75;;;4.80;88.90;;;;;;5074960;28;20039;-83
2022/01/21 11:59:06;;;;;;;5.50;2.40;;;4.90;87.30;;;;;;5092994;28;20043;-86
2022/01/21 12:01:47;;;;;;;5.80;2.17;;;5.00;87.20;;;;;;5058397;28;20039;-83
2022/01/21 12:04:14;;;;;;;;;;;5.00;87.10;;;;;;5075952;28;20040;-83
2022/01/21 12:06:40;;;;;;;8.02;2.15;;;4.90;86.10;;;;;;5075855;28;19920;-83
2022/01/21 12:09:10;;;;;;;6.80;2.22;;;4.90;85.10;;;;;;5076395;28;20035;-82
2022/01/21 12:11:38;;;;;;;6.35;2.30;;;4.80;85.90;;;;;;5074845;28;20393;-82
2022/01/21 12:14:38;;;;;;;7.32;2.40;;;4.80;86.20;;;;;;5093786;28;20028;-82
2022/01/21 12:17:21;;;;;;;5.53;2.58;;;4.90;85.10;;;;;;5075744;28;20036;-81
2022/01/21 12:19:49;;;;;;;5.57;2.35;;;5.10;86.00;;;;;;5093747;28;20488;-83
2022/01/21 12:22:17;;;;;;;6.65;2.55;;;5.20;84.20;;;;;;5075537;28;20469;-81
2022/01/21 12:24:48;;;;;;;7.72;2.20;;;5.20;83.20;;;;;;5075421;28;20048;-81
2022/01/21 12:27:14;;;;;;;6.63;2.08;;;5.30;82.70;;;;;;5075394;28;20045;-80
2022/01/21 12:29:41;;;;;;;12.38;2.13;;;5.50;84.00;;;;;;5093667;28;20039;-81
2022/01/21 12:32:17;;;;;;;3.55;1.77;;;5.50;82.40;;;;;;5093286;28;20036;-82
2022/01/21 12:35:17;;;;;;;5.78;1.92;;;5.40;81.40;;;;;;5047557;28;20039;-81
2022/01/21 12:41:17;;;;;;;7.88;2.35;;;5.30;81.90;;;;;;5030827;28;20033;-85
2022/01/21 12:43:53;;;;;;;3.50;1.35;;;5.20;81.70;;;;;;5079833;28;20043;-83
2022/01/21 12:46:40;;;;;;;4.13;1.63;;;5.20;80.70;;;;;;5093421;28;20031;-83
2022/01/21 12:49:31;;;;;;;2.85;1.17;;;5.20;81.00;;;;;;5075153;28;20043;-81
2022/01/21 12:52:30;;;;;;;7.00;1.88;;;5.10;81.00;;;;;;5092782;28;20025;-83
2022/01/21 12:57:42;;;;;;;3.03;1.33;;;5.10;80.40;;;;;;5092797;28;20063;-82
2022/01/21 13:00:10;;;;;;;3.60;1.35;;;5.00;78.70;;;;;;5093054;28;20393;-83
2022/01/21 13:02:37;;;;;;;8.50;1.10;;;5.10;79.30;;;;;;5092242;28;20043;-83
2022/01/21 13:05:17;;;;;;;8.77;1.65;;;5.00;77.90;;;;;;5092741;28;20036;-83
2022/01/21 13:08:14;;;;;;;2.50;1.63;;;5.00;77.50;;;;;;5074954;28;20028;-82
2022/01/21 13:10:40;;;;;;;4.55;1.92;;;5.00;78.10;;;;;;5074098;28;20035;-84
2022/01/21 13:15:38;;;;;;;6.53;1.65;;;5.10;78.10;;;;;;5092877;28;20357;-86
2022/01/21 13:18:25;;;;;;;3.17;1.45;;;5.00;78.40;;;;;;5096145;28;20024;-82
2022/01/21 13:20:59;;;;;;;5.15;1.20;;;5.00;78.70;;;;;;5078787;28;20036;-82
2022/01/21 13:23:52;;;;;;;2.50;1.05;;;5.00;79.20;;;;;;5099517;28;20040;-82
2022/01/21 13:26:28;;;;;;;2.88;1.58;;;4.90;79.00;;;;;;5075840;28;20040;-83
2022/01/21 13:29:02;;;;;;;9.50;4.75;;;4.90;79.20;;;;;;5075096;28;20458;-82
2022/01/21 13:31:31;;;;;;;5.75;3.75;;;4.90;79.90;;;;;;5074471;28;20469;-82
2022/01/21 13:34:15;;;;;;;1.80;0.88;;;5.00;80.00;;;;;;5092774;28;20039;-84
2022/01/21 13:36:45;;;;;;;3.60;0.95;;;5.00;79.70;;;;;;5074052;28;20040;-82
2022/01/21 13:39:24;;;;;;;6.50;1.60;;;4.90;79.40;;;;;;5075065;28;20035;-79
2022/01/21 13:41:55;;;;;;;2.67;1.15;;;4.90;79.90;;;;;;5092794;28;20043;-82
2022/01/21 13:44:42;;;;;;;5.80;1.80;;;4.90;79.20;;;;;;5092513;28;20040;-85
2022/01/21 13:47:36;;;;;;;4.70;1.55;;;5.00;79.80;;;;;;5093565;28;20032;-82
2022/01/21 13:50:14;;;;;;;4.25;1.73;;;5.10;80.00;;;;;;5069286;28;20036;-81
2022/01/21 13:52:52;;;;;;;4.25;1.67;;;5.20;79.90;;;;;;5072139;28;20037;-81
2022/01/21 13:55:52;;;;;;;4.97;1.50;;;5.30;78.90;;;;;;5090962;28;20040;-83
2022/01/21 13:58:25;;;;;;;2.20;0.82;;;5.50;78.40;;;;;;5077184;28;20067;-82
2022/01/21 14:00:58;;;;;;;3.97;1.40;;;5.40;78.30;;;;;;5057532;28;20048;-83
2022/01/21 14:03:30;;;;;;;3.83;1.35;;;5.40;78.60;;;;;;5070457;28;20044;-87
2022/01/21 14:06:11;;;;;;;3.10;1.35;;;5.30;78.90;;;;;;5089906;28;20036;-84
2022/01/21 14:08:40;;;;;;;5.20;1.75;;;5.10;78.50;;;;;;5091745;28;20039;-82
2022/01/21 14:11:25;;;;;;;9.40;1.33;;;5.00;79.50;;;;;;5074026;28;20036;-81